Time;durP1;ratioP1;P1;durP2;ratioP2;P2;SDS_P1;SDS_P2;PMS_P1;PMS_P2;Temp;Humidity;BMP_temperature;BMP_pressure;BME280_temperature;BME280_humidity;BME280_pressure;Samples;Min_cycle;Max_cycle;Signal;HPM_P1;HPM_P2
2021/06/03 00:01:56;;;;;;;;;;;23.10;55.20;;;;;;5037516;28;20129;-61
2021/06/03 00:04:22;;;;;;;;;;;23.10;55.20;;;;;;5037110;28;19925;-61
2021/06/03 00:06:47;;;;;;;;;;;23.10;55.20;;;;;;5037451;28;19924;-61
2021/06/03 00:09:13;;;;;;;;;;;23.10;55.20;;;;;;5036155;28;20000;-57
2021/06/03 00:11:38;;;;;;;;;;;23.10;55.20;;;;;;5018887;28;19943;-61
2021/06/03 00:14:04;;;;;;;;;;;23.10;55.20;;;;;;5037826;28;20552;-59
2021/06/03 00:16:33;;;;;;;;;;;23.10;55.80;;;;;;5036809;28;19924;-59
2021/06/03 00:19:00;;;;;;;;;;;23.10;55.20;;;;;;5020113;28;19936;-61
2021/06/03 00:21:25;;;;;;;;;;;23.10;55.20;;;;;;5037398;28;20681;-60
2021/06/03 00:23:51;;;;;;;;;;;23.10;55.20;;;;;;5036488;28;19948;-60
2021/06/03 00:26:16;;;;;;;;;;;23.10;55.20;;;;;;5031590;28;20385;-57
2021/06/03 00:28:42;;;;;;;;;;;23.10;55.20;;;;;;5036485;28;19921;-56
2021/06/03 00:31:07;;;;;;;;;;;23.10;55.80;;;;;;5037123;28;19921;-58
2021/06/03 00:33:32;;;;;;;;;;;23.10;55.10;;;;;;5019012;28;20424;-56
2021/06/03 00:35:58;;;;;;;;;;;23.00;55.10;;;;;;5038038;28;20322;-58
2021/06/03 00:38:23;;;;;;;;;;;23.10;55.20;;;;;;5017675;28;19928;-57
2021/06/03 00:40:49;;;;;;;;;;;23.10;55.20;;;;;;5036567;28;19966;-55
2021/06/03 00:43:14;;;;;;;;;;;23.00;55.10;;;;;;5035625;28;19975;-60
2021/06/03 00:45:40;;;;;;;;;;;23.00;55.10;;;;;;5018513;28;19963;-61
2021/06/03 00:48:06;;;;;;;;;;;23.00;55.10;;;;;;5018718;28;19942;-54
2021/06/03 00:50:35;;;;;;;;;;;23.10;55.20;;;;;;5035960;28;20293;-57
2021/06/03 00:53:02;;;;;;;;;;;23.10;55.10;;;;;;5036076;28;20019;-56
2021/06/03 00:55:27;;;;;;;;;;;23.10;55.10;;;;;;5036301;28;19929;-58
2021/06/03 00:57:53;;;;;;;;;;;23.10;55.20;;;;;;5033620;28;20058;-59
2021/06/03 01:00:18;;;;;;;;;;;23.00;55.10;;;;;;5018639;28;20113;-60
2021/06/03 01:02:44;;;;;;;;;;;23.00;55.10;;;;;;5017736;28;20298;-60
2021/06/03 01:05:10;;;;;;;;;;;23.00;55.00;;;;;;5019435;28;19935;-58
2021/06/03 01:07:36;;;;;;;;;;;23.00;55.10;;;;;;5036605;28;19994;-58
2021/06/03 01:10:04;;;;;;;;;;;23.00;55.10;;;;;;5036781;28;19924;-61
2021/06/03 01:12:36;;;;;;;;;;;23.10;55.10;;;;;;5035760;28;19917;-58
2021/06/03 01:15:05;;;;;;;;;;;23.00;55.10;;;;;;5018898;28;19923;-59
2021/06/03 01:17:30;;;;;;;;;;;23.00;55.10;;;;;;5029610;28;19983;-61
2021/06/03 01:19:55;;;;;;;;;;;23.10;55.20;;;;;;5038037;28;20392;-61
2021/06/03 01:22:22;;;;;;;;;;;23.10;55.10;;;;;;5022664;28;20578;-59
2021/06/03 01:24:48;;;;;;;;;;;23.10;55.10;;;;;;5040792;28;19962;-58
2021/06/03 01:27:18;;;;;;;;;;;23.00;55.10;;;;;;5040217;28;19963;-59
2021/06/03 01:30:02;;;;;;;;;;;23.10;55.10;;;;;;5040537;28;19966;-57
2021/06/03 01:32:28;;;;;;;;;;;23.10;55.10;;;;;;5040879;28;19924;-56
2021/06/03 01:34:53;;;;;;;;;;;23.00;55.00;;;;;;5023539;28;19917;-56
2021/06/03 01:37:18;;;;;;;;;;;23.00;55.00;;;;;;5040308;28;19933;-59
2021/06/03 01:39:44;;;;;;;;;;;23.10;55.10;;;;;;5021572;28;20297;-60
2021/06/03 01:42:09;;;;;;;;;;;23.00;55.00;;;;;;5040640;28;19917;-56
2021/06/03 01:44:35;;;;;;;;;;;23.10;55.10;;;;;;5039245;28;20003;-60
2021/06/03 01:47:01;;;;;;;;;;;23.00;55.00;;;;;;5034057;28;19925;-60
2021/06/03 01:49:27;;;;;;;;;;;23.10;55.00;;;;;;5023218;28;19917;-58
2021/06/03 01:51:52;;;;;;;;;;;23.00;55.00;;;;;;4999962;28;19991;-58
2021/06/03 01:54:18;;;;;;;;;;;23.00;55.00;;;;;;5028113;28;19917;-59
2021/06/03 01:56:43;;;;;;;;;;;23.00;55.00;;;;;;5041476;28;20298;-58
2021/06/03 01:59:09;;;;;;;;;;;23.00;55.00;;;;;;5025310;28;20339;-58
2021/06/03 02:01:34;;;;;;;;;;;23.00;55.00;;;;;;5042860;28;19956;-59
2021/06/03 02:04:00;;;;;;;;;;;23.00;55.00;;;;;;5041483;28;19921;-56
2021/06/03 02:06:25;;;;;;;;;;;23.00;55.00;;;;;;5036551;28;19921;-61
2021/06/03 02:08:51;;;;;;;;;;;23.00;55.00;;;;;;5026122;28;20000;-56
2021/06/03 02:11:16;;;;;;;;;;;23.00;55.00;;;;;;5025804;28;19924;-58
2021/06/03 02:13:46;;;;;;;;;;;23.00;55.00;;;;;;5044507;28;19916;-59
2021/06/03 02:16:23;;;;;;;;;;;23.00;55.00;;;;;;5025526;28;20328;-61
2021/06/03 02:18:59;;;;;;;;;;;23.00;55.00;;;;;;5042063;28;20555;-58
2021/06/03 02:21:25;;;;;;;;;;;23.00;55.00;;;;;;5043886;28;19970;-60
2021/06/03 02:23:50;;;;;;;;;;;23.00;55.00;;;;;;5043458;28;20340;-60
2021/06/03 02:26:16;;;;;;;;;;;23.00;54.90;;;;;;5026676;28;19920;-60
2021/06/03 02:28:42;;;;;;;;;;;23.00;54.90;;;;;;5042774;28;19925;-60
2021/06/03 02:31:07;;;;;;;;;;;23.00;54.90;;;;;;5025937;28;20384;-59
2021/06/03 02:33:33;;;;;;;;;;;23.00;54.90;;;;;;5043397;28;19924;-59
2021/06/03 02:35:59;;;;;;;;;;;23.00;54.90;;;;;;5025694;28;19924;-59
2021/06/03 02:38:24;;;;;;;;;;;23.00;54.90;;;;;;5042290;28;19921;-57
2021/06/03 02:40:50;;;;;;;;;;;23.00;54.90;;;;;;5042015;28;19917;-58
2021/06/03 02:43:16;;;;;;;;;;;23.00;54.90;;;;;;5043497;28;19920;-60
2021/06/03 02:45:41;;;;;;;;;;;23.00;54.90;;;;;;5025939;28;19917;-57
2021/06/03 02:48:07;;;;;;;;;;;23.00;54.90;;;;;;5043454;28;19920;-57
2021/06/03 02:50:32;;;;;;;;;;;23.00;54.90;;;;;;5042683;28;19992;-59
2021/06/03 02:52:58;;;;;;;;;;;23.00;54.90;;;;;;5043369;28;19978;-56
2021/06/03 02:55:23;;;;;;;;;;;23.00;54.90;;;;;;5043358;28;19932;-57
2021/06/03 02:57:49;;;;;;;;;;;23.00;55.00;;;;;;5036557;28;20349;-58
2021/06/03 03:00:19;;;;;;;;;;;23.00;54.90;;;;;;5039896;28;19921;-59
2021/06/03 03:02:44;;;;;;;;;;;23.00;54.90;;;;;;5042380;28;19916;-60
2021/06/03 03:05:10;;;;;;;;;;;23.00;54.90;;;;;;5043052;28;20328;-60
2021/06/03 03:07:35;;;;;;;;;;;23.00;54.90;;;;;;5023987;28;19931;-57
2021/06/03 03:10:01;;;;;;;;;;;23.00;54.90;;;;;;5024959;28;19939;-59
2021/06/03 03:12:26;;;;;;;;;;;23.00;54.90;;;;;;5025360;28;20007;-60
2021/06/03 03:14:52;;;;;;;;;;;23.00;54.90;;;;;;5043226;28;20341;-60
2021/06/03 03:17:17;;;;;;;;;;;23.00;54.90;;;;;;5043254;28;19932;-59
2021/06/03 03:19:43;;;;;;;;;;;23.00;54.90;;;;;;5042584;28;19943;-58
2021/06/03 03:22:08;;;;;;;;;;;23.00;54.90;;;;;;5042421;28;20564;-59
2021/06/03 03:24:34;;;;;;;;;;;23.00;54.90;;;;;;5021713;28;19917;-61
2021/06/03 03:26:59;;;;;;;;;;;23.00;54.90;;;;;;5021528;28;19921;-58
2021/06/03 03:29:25;;;;;;;;;;;23.00;54.90;;;;;;5038168;28;19917;-59
2021/06/03 03:31:50;;;;;;;;;;;23.00;54.90;;;;;;5036711;28;19920;-59
2021/06/03 03:34:15;;;;;;;;;;;23.00;54.90;;;;;;5037657;28;19917;-57
2021/06/03 03:36:41;;;;;;;;;;;23.00;54.90;;;;;;5037492;28;19985;-59
2021/06/03 03:39:06;;;;;;;;;;;22.90;54.90;;;;;;5019759;28;19924;-56
2021/06/03 03:41:32;;;;;;;;;;;23.00;54.90;;;;;;5036875;28;19917;-59
2021/06/03 03:43:57;;;;;;;;;;;22.90;54.90;;;;;;5032935;28;19921;-56
2021/06/03 03:46:23;;;;;;;;;;;23.00;55.00;;;;;;5038114;28;19972;-55
2021/06/03 03:48:48;;;;;;;;;;;22.90;55.00;;;;;;5019925;28;20346;-53
2021/06/03 03:51:15;;;;;;;;;;;22.90;54.90;;;;;;5038120;28;19924;-57
2021/06/03 03:53:41;;;;;;;;;;;23.00;54.90;;;;;;5019888;28;19925;-59
2021/06/03 03:56:06;;;;;;;;;;;22.90;54.90;;;;;;5020389;28;20023;-56
2021/06/03 03:58:36;;;;;;;;;;;22.90;54.90;;;;;;5037865;28;19956;-59
2021/06/03 04:01:01;;;;;;;;;;;22.90;54.90;;;;;;5037396;28;19948;-57
2021/06/03 04:03:27;;;;;;;;;;;22.90;54.90;;;;;;5034057;28;19921;-58
2021/06/03 04:05:52;;;;;;;;;;;22.90;55.00;;;;;;5038573;28;20360;-60
2021/06/03 04:08:18;;;;;;;;;;;22.90;54.90;;;;;;5038332;28;19997;-59
2021/06/03 04:10:43;;;;;;;;;;;22.90;54.90;;;;;;5038148;28;19924;-59
2021/06/03 04:13:08;;;;;;;;;;;22.90;54.90;;;;;;5038226;28;19925;-60
2021/06/03 04:15:34;;;;;;;;;;;22.90;54.90;;;;;;5037914;28;19917;-57
2021/06/03 04:17:59;;;;;;;;;;;22.90;54.90;;;;;;5037777;28;19920;-57
2021/06/03 04:20:25;;;;;;;;;;;22.90;54.90;;;;;;5038016;28;19936;-58
2021/06/03 04:22:51;;;;;;;;;;;22.90;54.90;;;;;;5014925;28;20302;-59
2021/06/03 04:25:16;;;;;;;;;;;22.90;54.90;;;;;;5020946;28;20047;-58
2021/06/03 04:27:42;;;;;;;;;;;22.90;55.50;;;;;;5045119;28;19995;-59
2021/06/03 04:30:08;;;;;;;;;;;22.90;54.90;;;;;;5007481;28;19920;-60
2021/06/03 04:32:33;;;;;;;;;;;22.90;54.90;;;;;;5007156;28;19920;-58
2021/06/03 04:34:59;;;;;;;;;;;22.90;54.90;;;;;;5034394;28;20643;-59
2021/06/03 04:37:26;;;;;;;;;;;22.90;54.70;;;;;;5036643;28;19925;-59
2021/06/03 04:39:51;;;;;;;;;;;23.00;54.70;;;;;;5036612;28;19933;-59
2021/06/03 04:42:17;;;;;;;;;;;22.90;54.60;;;;;;5037237;28;19974;-59
2021/06/03 04:44:42;;;;;;;;;;;23.00;54.70;;;;;;5019786;28;20819;-58
2021/06/03 04:47:07;;;;;;;;;;;23.00;54.70;;;;;;5031868;28;19916;-59
2021/06/03 04:49:33;;;;;;;;;;;23.00;54.70;;;;;;5036675;28;19924;-58
2021/06/03 04:52:24;;;;;;;;;;;23.00;54.80;;;;;;5036478;28;19921;-62
2021/06/03 04:54:44;;;;;;;;;;;23.00;54.90;;;;;;5037884;28;20010;-57
2021/06/03 04:57:09;;;;;;;;;;;23.00;54.90;;;;;;5019964;28;19917;-58
2021/06/03 04:59:35;;;;;;;;;;;23.00;55.00;;;;;;5037706;28;19928;-55
2021/06/03 05:02:00;;;;;;;;;;;23.00;55.40;;;;;;5036734;28;20513;-58
2021/06/03 05:04:26;;;;;;;;;;;23.00;55.60;;;;;;5037750;28;19921;-58
2021/06/03 05:06:51;;;;;;;;;;;23.00;56.40;;;;;;5038435;28;19921;-56
2021/06/03 05:09:16;;;;;;;;;;;23.00;55.80;;;;;;5038335;28;19991;-57
2021/06/03 05:11:42;;;;;;;;;;;23.00;55.70;;;;;;5034547;28;19940;-58
2021/06/03 05:14:07;;;;;;;;;;;23.00;55.70;;;;;;5030873;28;19921;-57
2021/06/03 05:16:33;;;;;;;;;;;23.00;55.70;;;;;;5020059;28;19921;-56
2021/06/03 05:18:58;;;;;;;;;;;23.00;55.70;;;;;;5037809;28;19931;-57
2021/06/03 05:21:24;;;;;;;;;;;23.00;55.70;;;;;;5018648;28;20245;-60
2021/06/03 05:23:49;;;;;;;;;;;23.00;55.70;;;;;;5036359;28;19936;-56
2021/06/03 05:26:14;;;;;;;;;;;23.00;55.70;;;;;;5036767;28;19920;-59
2021/06/03 05:28:40;;;;;;;;;;;23.00;55.60;;;;;;5030010;28;20022;-59
2021/06/03 05:31:05;;;;;;;;;;;23.00;55.70;;;;;;5037508;28;20356;-59
2021/06/03 05:33:31;;;;;;;;;;;23.00;55.70;;;;;;5040733;28;19920;-60
2021/06/03 05:35:56;;;;;;;;;;;23.00;55.70;;;;;;5061304;22;19957;-63
2021/06/03 05:38:22;;;;;;;;;;;23.00;55.80;;;;;;5059389;28;20399;-63
2021/06/03 05:40:47;;;;;;;;;;;23.00;55.90;;;;;;5059061;28;19917;-63
2021/06/03 05:43:13;;;;;;;;;;;23.00;56.00;;;;;;5059884;28;20451;-62
2021/06/03 05:45:38;;;;;;;;;;;23.00;56.00;;;;;;5059778;28;19912;-64
2021/06/03 05:48:04;;;;;;;;;;;23.00;56.00;;;;;;5059289;28;19916;-64
2021/06/03 05:50:29;;;;;;;;;;;23.00;56.20;;;;;;5057474;28;20012;-64
2021/06/03 05:52:55;;;;;;;;;;;23.00;56.40;;;;;;5061286;28;19963;-61
2021/06/03 05:55:20;;;;;;;;;;;23.10;56.70;;;;;;5061101;28;20396;-65
2021/06/03 05:57:46;;;;;;;;;;;23.00;56.90;;;;;;5043470;28;20364;-64
2021/06/03 06:00:19;;;;;;;;;;;23.00;57.10;;;;;;5046805;28;19917;-64
2021/06/03 06:07:58;;;;;;;;;;;23.00;57.70;;;;;;5060882;28;19923;-64
2021/06/03 06:10:23;;;;;;;;;;;23.10;57.80;;;;;;5043367;28;19912;-64
2021/06/03 06:12:48;;;;;;;;;;;23.00;57.70;;;;;;5043322;28;20468;-62
2021/06/03 06:15:14;;;;;;;;;;;23.00;57.70;;;;;;5060864;28;19918;-65
2021/06/03 06:17:39;;;;;;;;;;;23.00;57.60;;;;;;5060825;28;19924;-64
2021/06/03 06:20:05;;;;;;;;;;;23.00;57.50;;;;;;5060786;28;20288;-64
2021/06/03 06:22:31;;;;;;;;;;;23.10;57.40;;;;;;5039763;28;19924;-64
2021/06/03 06:24:56;;;;;;;;;;;23.00;57.20;;;;;;5038969;28;19919;-64
2021/06/03 06:27:22;;;;;;;;;;;23.00;57.10;;;;;;5040946;28;19917;-64
2021/06/03 06:29:47;;;;;;;;;;;23.00;57.00;;;;;;5041778;28;19917;-63
2021/06/03 06:32:12;;;;;;;;;;;23.00;56.90;;;;;;5042258;28;19920;-64
2021/06/03 06:34:38;;;;;;;;;;;23.00;56.70;;;;;;5060303;28;19928;-61
2021/06/03 06:37:03;;;;;;;;;;;23.00;56.60;;;;;;5059765;28;19921;-63
2021/06/03 06:39:29;;;;;;;;;;;23.00;56.50;;;;;;5060599;28;19931;-63
2021/06/03 06:41:54;;;;;;;;;;;23.00;56.30;;;;;;5040878;28;19952;-63
2021/06/03 06:44:20;;;;;;;;;;;23.00;56.20;;;;;;5058199;28;20064;-64
2021/06/03 06:46:45;;;;;;;;;;;23.00;56.10;;;;;;5060733;28;19917;-61
2021/06/03 06:49:11;;;;;;;;;;;23.00;55.90;;;;;;5057644;28;19921;-62
2021/06/03 06:51:37;;;;;;;;;;;23.00;55.80;;;;;;5039850;28;19917;-64
2021/06/03 06:54:03;;;;;;;;;;;23.00;55.70;;;;;;5040203;28;20343;-63
2021/06/03 06:56:28;;;;;;;;;;;23.00;55.60;;;;;;5040212;28;19913;-62
2021/06/03 06:58:54;;;;;;;;;;;23.00;55.40;;;;;;5038743;28;19924;-63
2021/06/03 07:01:19;;;;;;;;;;;23.00;55.30;;;;;;5039465;28;19913;-59
2021/06/03 07:03:44;;;;;;;;;;;23.00;55.30;;;;;;5048294;28;19920;-60
2021/06/03 07:06:10;;;;;;;;;;;23.00;55.10;;;;;;5059660;28;19924;-61
2021/06/03 07:08:35;;;;;;;;;;;23.00;55.50;;;;;;5059372;28;20396;-61
2021/06/03 07:11:01;;;;;;;;;;;23.00;54.90;;;;;;5042047;28;19913;-62
2021/06/03 07:13:26;;;;;;;;;;;23.00;54.90;;;;;;5059338;28;19924;-62
2021/06/03 07:15:52;;;;;;;;;;;23.00;54.90;;;;;;5050660;28;20073;-62
2021/06/03 07:18:18;;;;;;;;;;;23.00;54.70;;;;;;5040476;28;19966;-61
2021/06/03 07:20:43;;;;;;;;;;;23.00;54.70;;;;;;5039974;28;19913;-62
2021/06/03 07:23:08;;;;;;;;;;;23.00;54.70;;;;;;5039249;28;19917;-61
2021/06/03 07:25:35;;;;;;;;;;;23.00;54.70;;;;;;5037505;28;20441;-62
2021/06/03 07:28:01;;;;;;;;;;;23.00;54.70;;;;;;5037707;28;20143;-60
2021/06/03 07:30:26;;;;;;;;;;;23.00;54.70;;;;;;5037943;28;20806;-61
2021/06/03 07:32:52;;;;;;;;;;;23.00;54.60;;;;;;5039594;28;19916;-62
2021/06/03 07:35:18;;;;;;;;;;;23.00;54.60;;;;;;5041865;28;19913;-62
2021/06/03 07:37:44;;;;;;;;;;;23.00;54.60;;;;;;5058637;28;19952;-60
2021/06/03 07:40:10;;;;;;;;;;;23.00;54.60;;;;;;5058751;28;20563;-61
2021/06/03 07:42:36;;;;;;;;;;;23.00;54.60;;;;;;5059030;28;19913;-60
2021/06/03 07:45:02;;;;;;;;;;;23.00;54.70;;;;;;5059146;28;19966;-61
2021/06/03 07:47:28;;;;;;;;;;;23.00;54.70;;;;;;5056650;28;19917;-60
2021/06/03 07:49:53;;;;;;;;;;;23.00;54.70;;;;;;5040392;28;19963;-62
2021/06/03 07:52:19;;;;;;;;;;;23.00;54.70;;;;;;5046865;28;19913;-58
2021/06/03 07:54:44;;;;;;;;;;;23.00;54.70;;;;;;5048590;28;20554;-60
2021/06/03 07:57:09;;;;;;;;;;;23.00;54.70;;;;;;5058670;28;19916;-60
2021/06/03 07:59:35;;;;;;;;;;;23.00;54.70;;;;;;5059562;28;19916;-62
2021/06/03 08:02:00;;;;;;;;;;;23.00;54.70;;;;;;5037256;28;19925;-62
2021/06/03 08:04:26;;;;;;;;;;;23.00;54.80;;;;;;5037832;28;20198;-59
2021/06/03 08:06:51;;;;;;;;;;;23.00;54.80;;;;;;5039362;28;19928;-61
2021/06/03 08:09:17;;;;;;;;;;;23.00;54.80;;;;;;5035850;28;19913;-60
2021/06/03 08:11:44;;;;;;;;;;;23.00;54.80;;;;;;5036791;28;19917;-62
2021/06/03 08:14:10;;;;;;;;;;;23.00;54.80;;;;;;5036966;28;19923;-62
2021/06/03 08:16:35;;;;;;;;;;;23.00;54.90;;;;;;5037388;28;20018;-62
2021/06/03 08:19:01;;;;;;;;;;;23.00;54.90;;;;;;5037013;28;19966;-59
2021/06/03 08:21:26;;;;;;;;;;;23.00;54.90;;;;;;5055680;28;20557;-61
2021/06/03 08:23:51;;;;;;;;;;;23.00;54.90;;;;;;5057371;28;19969;-62
2021/06/03 08:26:17;;;;;;;;;;;23.00;55.00;;;;;;5038955;28;19920;-63
2021/06/03 08:28:43;;;;;;;;;;;23.00;55.00;;;;;;5056436;28;19922;-60
2021/06/03 08:31:09;;;;;;;;;;;22.90;54.90;;;;;;5040066;28;19912;-62
2021/06/03 08:33:34;;;;;;;;;;;23.00;55.00;;;;;;5036804;28;20004;-62
2021/06/03 08:36:00;;;;;;;;;;;23.00;55.10;;;;;;5037208;28;20320;-59
2021/06/03 08:38:25;;;;;;;;;;;23.00;55.10;;;;;;5036329;28;19960;-63
2021/06/03 08:40:56;;;;;;;;;;;23.00;55.20;;;;;;5036605;28;20394;-62
2021/06/03 08:43:22;;;;;;;;;;;23.00;55.20;;;;;;5035669;28;20397;-62
2021/06/03 08:45:47;;;;;;;;;;;23.00;55.30;;;;;;5051725;28;19952;-62
2021/06/03 08:48:13;;;;;;;;;;;23.00;55.30;;;;;;5038604;28;19916;-62
2021/06/03 08:50:39;;;;;;;;;;;23.00;55.40;;;;;;5036254;28;20376;-62
2021/06/03 08:53:05;;;;;;;;;;;23.00;55.40;;;;;;5035765;28;19916;-62
2021/06/03 08:58:15;;;;;;;;;;;23.00;55.40;;;;;;5042322;28;19970;-62
2021/06/03 09:00:41;;;;;;;;;;;23.00;55.40;;;;;;5056148;28;19944;-65
2021/06/03 09:03:08;;;;;;;;;;;23.00;55.40;;;;;;5037364;28;19912;-64
2021/06/03 09:05:33;;;;;;;;;;;23.00;55.50;;;;;;5039610;28;19921;-64
2021/06/03 09:08:06;;;;;;;;;;;23.00;55.50;;;;;;5056308;28;19916;-64
2021/06/03 09:10:32;;;;;;;;;;;23.00;55.60;;;;;;5037922;28;19917;-64
2021/06/03 09:13:06;;;;;;;;;;;23.00;55.60;;;;;;5039314;28;19917;-64
2021/06/03 09:15:32;;;;;;;;;;;23.00;55.60;;;;;;5039948;28;20565;-64
2021/06/03 09:17:57;;;;;;;;;;;23.00;55.60;;;;;;5041537;28;19970;-64
2021/06/03 09:20:23;;;;;;;;;;;23.00;55.70;;;;;;5058866;28;20651;-65
2021/06/03 09:22:48;;;;;;;;;;;23.00;55.70;;;;;;5059380;28;19917;-63
2021/06/03 09:25:32;;;;;;;;;;;23.00;55.70;;;;;;5041547;28;25042;-64
2021/06/03 09:28:17;;;;;;;;;;;23.00;55.80;;;;;;5058391;28;19912;-64
2021/06/03 09:31:01;;;;;;;;;;;23.00;55.80;;;;;;5052888;28;19916;-64
2021/06/03 09:33:46;;;;;;;;;;;23.00;55.80;;;;;;5035105;28;19962;-63
2021/06/03 09:36:24;;;;;;;;;;;23.00;55.80;;;;;;5059111;28;20003;-62
2021/06/03 09:38:53;;;;;;;;;;;23.00;55.80;;;;;;5038804;28;20466;-62
2021/06/03 09:41:19;;;;;;;;;;;23.00;55.80;;;;;;5039968;28;19916;-63
2021/06/03 09:43:46;;;;;;;;;;;23.00;55.80;;;;;;5058046;28;19943;-63
2021/06/03 09:46:15;;;;;;;;;;;23.00;55.90;;;;;;5050671;28;20392;-62
2021/06/03 09:48:41;;;;;;;;;;;23.00;55.90;;;;;;5058542;28;20565;-63
2021/06/03 09:51:26;;;;;;;;;;;23.00;55.90;;;;;;5048758;28;19932;-63
2021/06/03 09:53:59;;;;;;;;;;;23.00;55.80;;;;;;5038657;28;19913;-64
2021/06/03 09:56:37;;;;;;;;;;;23.10;55.90;;;;;;5059533;28;20150;-63
2021/06/03 09:59:04;;;;;;;;;;;23.00;55.90;;;;;;5053824;28;19921;-64
2021/06/03 10:01:38;;;;;;;;;;;23.10;56.00;;;;;;5048083;28;19917;-63
2021/06/03 10:04:04;;;;;;;;;;;23.10;56.00;;;;;;5058670;28;20422;-61
2021/06/03 10:06:30;;;;;;;;;;;23.10;56.00;;;;;;5058404;28;19912;-62
2021/06/03 10:08:56;;;;;;;;;;;23.10;56.10;;;;;;5060304;28;19916;-63
2021/06/03 10:11:41;;;;;;;;;;;23.10;56.20;;;;;;5058838;28;20462;-62
2021/06/03 10:14:10;;;;;;;;;;;23.10;56.20;;;;;;5058488;28;19925;-62
2021/06/03 10:16:35;;;;;;;;;;;23.10;56.10;;;;;;5057958;28;19913;-63
2021/06/03 10:19:17;;;;;;;;;;;23.10;56.10;;;;;;5047273;28;20095;-61
2021/06/03 10:21:43;;;;;;;;;;;23.10;56.10;;;;;;5039003;28;19940;-63
2021/06/03 10:24:09;;;;;;;;;;;23.10;56.10;;;;;;5054358;28;20378;-61
2021/06/03 10:26:53;;;;;;;;;;;23.10;56.10;;;;;;5059380;28;19916;-62
2021/06/03 10:29:18;;;;;;;;;;;23.10;56.10;;;;;;5047742;28;19981;-62
2021/06/03 10:31:43;;;;;;;;;;;23.10;56.10;;;;;;5036881;28;20643;-62
2021/06/03 10:34:09;;;;;;;;;;;23.10;56.10;;;;;;5055690;28;20053;-60
2021/06/03 10:36:34;;;;;;;;;;;23.10;56.30;;;;;;5040602;28;19925;-62
2021/06/03 10:39:00;;;;;;;;;;;23.10;56.10;;;;;;5058393;28;19927;-64
2021/06/03 10:41:25;;;;;;;;;;;23.10;56.20;;;;;;5040956;28;19916;-62
2021/06/03 10:43:51;;;;;;;;;;;23.10;56.20;;;;;;5039449;28;19917;-63
2021/06/03 10:46:16;;;;;;;;;;;23.10;56.20;;;;;;5038585;28;20688;-63
2021/06/03 10:48:42;;;;;;;;;;;23.10;56.20;;;;;;5044064;28;20030;-63
2021/06/03 10:51:07;;;;;;;;;;;23.10;56.10;;;;;;5056963;28;19920;-63
2021/06/03 10:53:33;;;;;;;;;;;23.10;56.10;;;;;;5040007;28;20585;-62
2021/06/03 10:56:08;;;;;;;;;;;23.20;56.20;;;;;;5058193;28;19923;-65
2021/06/03 10:58:34;;;;;;;;;;;23.20;56.20;;;;;;5040207;28;19916;-63
2021/06/03 11:01:01;;;;;;;;;;;23.10;56.20;;;;;;5055077;28;20274;-62
2021/06/03 11:03:37;;;;;;;;;;;23.20;56.20;;;;;;5038279;28;19920;-63
2021/06/03 11:06:06;;;;;;;;;;;23.20;56.20;;;;;;5036701;28;20000;-62
2021/06/03 11:08:35;;;;;;;;;;;23.20;56.20;;;;;;5036706;28;19913;-63
2021/06/03 11:11:10;;;;;;;;;;;23.20;56.20;;;;;;5037855;28;19979;-63
2021/06/03 11:13:35;;;;;;;;;;;23.20;56.20;;;;;;5038161;28;20015;-62
2021/06/03 11:16:08;;;;;;;;;;;23.20;56.20;;;;;;5055716;28;20003;-62
2021/06/03 11:18:42;;;;;;;;;;;23.20;56.20;;;;;;5057148;28;19913;-62
2021/06/03 11:21:08;;;;;;;;;;;23.20;56.20;;;;;;5057113;28;19916;-60
2021/06/03 11:23:33;;;;;;;;;;;23.20;56.20;;;;;;5048828;28;20588;-61
2021/06/03 11:25:59;;;;;;;;;;;23.30;56.30;;;;;;5039039;28;20352;-63
2021/06/03 11:28:25;;;;;;;;;;;23.30;56.30;;;;;;5047895;28;19916;-63
2021/06/03 11:30:52;;;;;;;;;;;23.20;56.30;;;;;;5042107;28;19917;-63
2021/06/03 11:33:17;;;;;;;;;;;23.20;56.20;;;;;;5035883;28;20659;-62
2021/06/03 11:38:15;;;;;;;;;;;23.20;56.20;;;;;;5057808;28;20031;-60
2021/06/03 11:40:41;;;;;;;;;;;23.30;56.30;;;;;;5073295;28;20292;-61
2021/06/03 11:43:10;;;;;;;;;;;23.30;56.30;;;;;;5080204;28;19919;-59
2021/06/03 11:45:41;;;;;;;;;;;23.30;56.30;;;;;;5057998;28;19913;-60
2021/06/03 11:48:13;;;;;;;;;;;23.30;56.30;;;;;;5039832;28;19969;-59
2021/06/03 11:50:39;;;;;;;;;;;23.30;56.30;;;;;;5065842;28;19916;-60
2021/06/03 11:53:08;;;;;;;;;;;23.30;56.20;;;;;;5071356;28;19923;-58
2021/06/03 11:55:35;;;;;;;;;;;23.30;56.20;;;;;;5087998;28;19916;-59
2021/06/03 11:58:12;;;;;;;;;;;23.30;56.30;;;;;;5059197;28;20362;-59
2021/06/03 12:00:38;;;;;;;;;;;23.30;56.20;;;;;;5097840;28;19926;-60
2021/06/03 12:03:20;;;;;;;;;;;23.30;56.20;;;;;;5067747;28;19916;-59
2021/06/03 12:05:45;;;;;;;;;;;23.30;56.20;;;;;;5058469;28;20385;-60
2021/06/03 12:08:14;;;;;;;;;;;23.30;56.20;;;;;;5075138;28;19942;-60
2021/06/03 12:10:40;;;;;;;;;;;23.30;56.20;;;;;;5042325;28;20249;-61
2021/06/03 12:13:18;;;;;;;;;;;23.40;56.20;;;;;;5098458;28;19916;-60
2021/06/03 12:15:43;;;;;;;;;;;23.40;56.20;;;;;;5062720;28;19916;-60
2021/06/03 12:18:09;;;;;;;;;;;23.40;56.10;;;;;;5061688;28;19926;-61
2021/06/03 12:20:34;;;;;;;;;;;23.40;56.20;;;;;;5072737;28;19932;-60
2021/06/03 12:23:03;;;;;;;;;;;23.40;56.40;;;;;;5072071;28;20388;-60
2021/06/03 12:25:32;;;;;;;;;;;23.40;56.20;;;;;;5087696;28;20263;-64
2021/06/03 12:27:58;;;;;;;;;;;23.40;56.10;;;;;;5058882;28;20345;-60
2021/06/03 12:30:26;;;;;;;;;;;23.40;56.10;;;;;;5078255;28;19930;-60
2021/06/03 12:33:00;;;;;;;;;;;23.40;56.00;;;;;;5086315;28;19938;-60
2021/06/03 12:35:45;;;;;;;;;;;23.40;56.00;;;;;;5068534;28;19916;-60
2021/06/03 12:38:26;;;;;;;;;;;23.50;56.10;;;;;;5068187;28;20380;-60
2021/06/03 12:40:51;;;;;;;;;;;23.40;56.00;;;;;;5075009;28;19951;-60
2021/06/03 12:43:16;;;;;;;;;;;23.50;56.00;;;;;;5091785;28;19981;-59
2021/06/03 12:45:42;;;;;;;;;;;23.50;56.10;;;;;;5075836;28;19935;-60
2021/06/03 12:48:08;;;;;;;;;;;23.50;56.10;;;;;;5058621;28;20015;-60
2021/06/03 12:50:37;;;;;;;;;;;23.50;56.00;;;;;;5070452;28;19920;-59
2021/06/03 12:53:13;;;;;;;;;;;23.50;56.00;;;;;;5067644;28;19977;-59
2021/06/03 12:55:38;;;;;;;;;;;23.50;56.10;;;;;;5066142;28;19916;-59
2021/06/03 12:58:11;;;;;;;;;;;23.50;56.00;;;;;;5065214;28;19922;-60
2021/06/03 13:00:36;;;;;;;;;;;23.50;56.00;;;;;;5079703;28;20124;-60
2021/06/03 13:03:15;;;;;;;;;;;23.50;56.00;;;;;;5085842;28;20747;-60
2021/06/03 13:05:41;;;;;;;;;;;23.50;56.00;;;;;;5086274;28;20393;-60
2021/06/03 13:08:06;;;;;;;;;;;23.50;55.90;;;;;;5080148;28;19926;-59
2021/06/03 13:10:32;;;;;;;;;;;23.50;56.00;;;;;;5097769;28;20278;-58
2021/06/03 13:13:00;;;;;;;;;;;23.50;55.90;;;;;;5079600;28;19921;-59
2021/06/03 13:15:26;;;;;;;;;;;23.50;55.80;;;;;;5055859;28;19917;-59
2021/06/03 13:17:57;;;;;;;;;;;23.50;55.90;;;;;;5066372;28;20380;-60
2021/06/03 13:20:24;;;;;;;;;;;23.60;55.90;;;;;;5054091;28;20061;-61
2021/06/03 13:22:50;;;;;;;;;;;23.60;55.90;;;;;;5057330;28;21178;-61
2021/06/03 13:25:15;;;;;;;;;;;23.60;55.90;;;;;;5087450;28;20285;-61
2021/06/03 13:27:44;;;;;;;;;;;23.60;55.90;;;;;;5081733;28;19912;-60
2021/06/03 13:30:14;;;;;;;;;;;23.60;56.50;;;;;;5084048;28;19912;-61
2021/06/03 13:32:40;;;;;;;;;;;23.60;55.90;;;;;;5086879;28;20636;-61
2021/06/03 13:35:09;;;;;;;;;;;23.60;55.90;;;;;;5040977;28;19919;-61
2021/06/03 13:37:35;;;;;;;;;;;23.60;55.90;;;;;;5061557;28;19920;-61
2021/06/03 13:40:05;;;;;;;;;;;23.60;55.90;;;;;;5087091;28;19921;-61
2021/06/03 13:42:32;;;;;;;;;;;23.60;55.90;;;;;;5065473;28;19982;-63
2021/06/03 13:45:02;;;;;;;;;;;23.60;55.90;;;;;;5066266;28;19919;-60
2021/06/03 13:47:41;;;;;;;;;;;23.60;55.90;;;;;;5059604;28;19920;-60
2021/06/03 13:50:13;;;;;;;;;;;23.60;55.90;;;;;;5068718;28;19916;-61
2021/06/03 13:52:42;;;;;;;;;;;23.60;55.90;;;;;;5055597;28;19920;-60
2021/06/03 13:55:14;;;;;;;;;;;23.70;56.00;;;;;;5076566;28;19961;-60
2021/06/03 13:57:40;;;;;;;;;;;23.60;55.90;;;;;;5085922;28;19915;-60
2021/06/03 14:00:06;;;;;;;;;;;23.60;55.90;;;;;;5078743;28;19923;-60
2021/06/03 14:02:31;;;;;;;;;;;23.60;56.00;;;;;;5088777;28;19912;-60
2021/06/03 14:04:56;;;;;;;;;;;23.60;56.00;;;;;;5096406;28;19920;-59
2021/06/03 14:07:22;;;;;;;;;;;23.70;56.10;;;;;;5073165;28;19920;-60
2021/06/03 14:09:47;;;;;;;;;;;23.70;56.10;;;;;;5064882;28;19920;-59
2021/06/03 14:14:39;;;;;;;;;;;23.70;56.10;;;;;;5086693;28;19911;-59
2021/06/03 14:17:08;;;;;;;;;;;23.70;56.10;;;;;;5069502;28;19917;-58
2021/06/03 14:19:44;;;;;;;;;;;23.70;56.10;;;;;;5073872;28;19986;-64
2021/06/03 14:22:09;;;;;;;;;;;23.70;56.10;;;;;;5082611;28;19996;-60
2021/06/03 14:24:37;;;;;;;;;;;23.70;56.10;;;;;;5066341;28;20062;-60
2021/06/03 14:27:08;;;;;;;;;;;23.70;56.10;;;;;;5087899;28;20505;-59
2021/06/03 14:29:41;;;;;;;;;;;23.70;56.10;;;;;;5067803;28;20314;-61